Time;durP1;ratioP1;P1;durP2;ratioP2;P2;SDS_P1;SDS_P2;PMS_P1;PMS_P2;Temp;Humidity;BMP_temperature;BMP_pressure;BME280_temperature;BME280_humidity;BME280_pressure;Samples;Min_cycle;Max_cycle;Signal;HPM_P1;HPM_P2
2022/06/13 00:01:55;;;;;;;;;;;;;;;;;;5026840;28;19977;-59
2022/06/13 00:04:24;;;;;;;;;;;;;;;;;;5066991;28;19909;-59
2022/06/13 00:07:08;;;;;;;;;;;;;;;;;;5066294;28;19959;-59
2022/06/13 00:09:42;;;;;;;;;;;;;;;;;;5066261;28;19980;-59
2022/06/13 00:12:14;;;;;;;;;;;;;;;;;;5066679;28;19972;-59
2022/06/13 00:14:48;;;;;;;;;;;;;;;;;;5067094;28;19939;-59
2022/06/13 00:17:14;;;;;;;;;;;;;;;;;;5049831;28;19962;-59
2022/06/13 00:22:28;;;;;;;;;;;;;;;;;;5108475;28;19914;-59
2022/06/13 00:24:55;;;;;;;;;;;;;;;;;;5108352;28;19912;-59
2022/06/13 00:27:27;;;;;;;;;;;;;;;;;;5089709;28;19908;-59
2022/06/13 00:30:06;;;;;;;;;;;;;;;;;;5089201;28;19923;-59
2022/06/13 00:32:34;;;;;;;;;;;;;;;;;;5108347;28;19908;-59
2022/06/13 00:35:07;;;;;;;;;;;;;;;;;;5109507;28;19908;-59
2022/06/13 00:40:24;;;;;;;;;;;;;;;;;;5108795;28;19930;-61
2022/06/13 00:42:53;;;;;;;;;;;;;;;;;;5109291;28;19908;-58
2022/06/13 00:45:37;;;;;;;;;;;;;;;;;;5109526;28;19928;-59
2022/06/13 00:48:17;;;;;;;;;;;;;;;;;;5104889;28;19923;-59
2022/06/13 00:50:47;;;;;;;;;;;;;;;;;;5065732;28;19916;-59
2022/06/13 00:53:22;;;;;;;;;;;;;;;;;;5066429;28;19915;-59
2022/06/13 00:58:37;;;;;;;;;;;;;;;;;;5065926;28;19915;-59
2022/06/13 01:01:05;;;;;;;;;;;;;;;;;;5065884;28;19940;-59
2022/06/13 01:06:21;;;;;;;;;;;;;;;;;;5055214;28;19908;-59
2022/06/13 01:08:53;;;;;;;;;;;;;;;;;;5066058;28;20405;-59
2022/06/13 01:11:31;;;;;;;;;;;;;;;;;;5066673;28;19972;-59
2022/06/13 01:14:06;;;;;;;;;;;;;;;;;;5066456;28;19909;-59
2022/06/13 01:19:24;;;;;;;;;;;;;;;;;;5103367;28;19934;-59
2022/06/13 01:22:06;;;;;;;;;;;;;;;;;;5073060;28;19908;-59
2022/06/13 01:24:32;;;;;;;;;;;;;;;;;;5065689;28;19908;-59
2022/06/13 01:27:03;;;;;;;;;;;;;;;;;;5065861;28;19916;-59
2022/06/13 01:29:47;;;;;;;;;;;;;;;;;;5049402;28;19916;-59
2022/06/13 01:35:08;;;;;;;;;;;;;;;;;;5065758;28;19912;-59
2022/06/13 01:37:36;;;;;;;;;;;;;;;;;;5065710;28;19909;-59
2022/06/13 01:40:09;;;;;;;;;;;;;;;;;;5066585;28;19998;-59
2022/06/13 01:42:56;;;;;;;;;;;;;;;;;;5066121;28;19913;-59
2022/06/13 01:45:30;;;;;;;;;;;;;;;;;;5065422;28;19928;-59
2022/06/13 01:48:05;;;;;;;;;;;;;;;;;;5066309;28;20327;-59
2022/06/13 01:50:37;;;;;;;;;;;;;;;;;;5065029;28;19916;-59
2022/06/13 01:53:18;;;;;;;;;;;;;;;;;;5065809;28;20219;-59
2022/06/13 01:55:50;;;;;;;;;;;;;;;;;;5078654;28;19915;-59
2022/06/13 01:58:28;;;;;;;;;;;;;;;;;;5087762;28;20078;-59
2022/06/13 02:01:10;;;;;;;;;;;;;;;;;;5087568;28;19935;-59
2022/06/13 02:03:39;;;;;;;;;;;;;;;;;;5088467;28;19908;-59
2022/06/13 02:06:06;;;;;;;;;;;;;;;;;;5065974;28;19909;-59
2022/06/13 02:11:17;;;;;;;;;;;;;;;;;;5065974;28;19976;-59
2022/06/13 02:16:47;;;;;;;;;;;;;;;;;;5056508;28;19943;-59
2022/06/13 02:19:20;;;;;;;;;;;;;;;;;;5065183;28;19992;-59
2022/06/13 02:21:51;;;;;;;;;;;;;;;;;;5065506;28;19935;-59
2022/06/13 02:24:23;;;;;;;;;;;;;;;;;;5065734;28;19908;-59
2022/06/13 02:26:52;;;;;;;;;;;;;;;;;;5065736;28;19992;-59
2022/06/13 02:29:36;;;;;;;;;;;;;;;;;;5048658;28;19916;-59
2022/06/13 02:37:52;;;;;;;;;;;;;;;;;;5076665;28;19947;-59
2022/06/13 02:40:24;;;;;;;;;;;;;;;;;;5086683;28;19908;-59
2022/06/13 02:45:40;;;;;;;;;;;;;;;;;;5101058;28;20031;-59
2022/06/13 02:48:07;;;;;;;;;;;;;;;;;;5089722;28;19916;-59
2022/06/13 02:50:45;;;;;;;;;;;;;;;;;;5107738;28;19939;-59
2022/06/13 02:53:14;;;;;;;;;;;;;;;;;;5107434;28;19914;-59
2022/06/13 02:55:58;;;;;;;;;;;;;;;;;;5107527;28;20280;-59
2022/06/13 03:01:31;;;;;;;;;;;;;;;;;;5016842;28;19914;-59
2022/06/13 03:03:57;;;;;;;;;;;;;;;;;;5107330;28;19909;-59
2022/06/13 03:06:39;;;;;;;;;;;;;;;;;;5108106;28;19940;-59
2022/06/13 03:09:08;;;;;;;;;;;;;;;;;;5107616;28;20289;-59
2022/06/13 03:11:56;;;;;;;;;;;;;;;;;;5107578;28;19912;-59
2022/06/13 03:14:31;;;;;;;;;;;;;;;;;;;;;
2022/06/13 03:19:46;;;;;;;;;;;;;;;;;;5107039;28;19908;-59
2022/06/13 03:22:24;;;;;;;;;;;;;;;;;;5107513;28;19908;-59
2022/06/13 03:24:52;;;;;;;;;;;;;;;;;;5106590;28;19929;-59
2022/06/13 03:27:29;;;;;;;;;;;;;;;;;;5106226;28;19934;-58
2022/06/13 03:29:55;;;;;;;;;;;;;;;;;;5106609;28;19955;-59
2022/06/13 03:35:48;;;;;;;;;;;;;;;;;;5095138;28;20392;-59
2022/06/13 03:43:49;;;;;;;;;;;;;;;;;;5080681;28;19908;-58
2022/06/13 03:49:26;;;;;;;;;;;;;;;;;;5098645;28;19916;-58
2022/06/13 03:51:59;;;;;;;;;;;;;;;;;;5099246;28;19954;-58
2022/06/13 03:54:25;;;;;;;;;;;;;;;;;;5098859;28;19908;-58
2022/06/13 03:56:52;;;;;;;;;;;;;;;;;;5102229;28;19987;-59
2022/06/13 04:02:06;;;;;;;;;;;;;;;;;;5097533;28;20014;-58
2022/06/13 04:04:41;;;;;;;;;;;;;;;;;;5078895;28;20368;-58
2022/06/13 04:07:10;;;;;;;;;;;;;;;;;;5097635;28;19951;-58
2022/06/13 04:12:21;;;;;;;;;;;;;;;;;;5097641;28;19915;-58
2022/06/13 04:14:47;;;;;;;;;;;;;;;;;;5076259;28;19905;-58
2022/06/13 04:17:15;;;;;;;;;;;;;;;;;;5097562;28;19908;-58
2022/06/13 04:19:47;;;;;;;;;;;;;;;;;;5095003;28;20274;-58
2022/06/13 04:22:13;;;;;;;;;;;;;;;;;;5079794;28;19915;-58
2022/06/13 04:24:55;;;;;;;;;;;;;;;;;;;;;
2022/06/13 04:27:27;;;;;;;;;;;;;;;;;;5097222;28;20277;-57
2022/06/13 04:29:53;;;;;;;;;;;;;;;;;;5097632;28;20269;-58
2022/06/13 04:32:19;;;;;;;;;;;;;;;;;;5090827;28;20368;-58
2022/06/13 04:37:43;;;;;;;;;;;;;;;;;;5021240;28;19941;-58
2022/06/13 04:40:36;;;;;;;;;;;;;;;;;;;;;
2022/06/13 04:43:09;;;;;;;;;;;;;;;;;;5109824;28;19943;-58
2022/06/13 04:45:47;;;;;;;;;;;;;;;;;;;;;
2022/06/13 04:51:12;;;;;;;;;;;;;;;;;;5092618;28;19930;-58
2022/06/13 04:53:41;;;;;;;;;;;;;;;;;;5109088;28;19948;-59
2022/06/13 04:59:12;;;;;;;;;;;;;;;;;;5087836;28;19915;-58
2022/06/13 05:01:44;;;;;;;;;;;;;;;;;;5109325;28;19919;-58
2022/06/13 05:07:08;;;;;;;;;;;;;;;;;;5092802;28;19908;-58
2022/06/13 05:09:46;;;;;;;;;;;;;;;;;;5110414;28;19927;-58
2022/06/13 05:14:59;;;;;;;;;;;;;;;;;;5109900;28;19911;-58
2022/06/13 05:17:28;;;;;;;;;;;;;;;;;;5110626;28;20006;-58
2022/06/13 05:22:48;;;;;;;;;;;;;;;;;;5110158;28;20273;-58
2022/06/13 05:25:17;;;;;;;;;;;;;;;;;;5109591;28;19908;-58
2022/06/13 05:28:04;;;;;;;;;;;;;;;;;;5109686;28;19971;-58
2022/06/13 05:30:35;;;;;;;;;;;;;;;;;;5108929;28;19916;-58
2022/06/13 05:33:19;;;;;;;;;;;;;;;;;;5096690;28;19908;-58
2022/06/13 05:41:18;;;;;;;;;;;;;;;;;;5095978;28;19934;-58
2022/06/13 05:43:47;;;;;;;;;;;;;;;;;;5096256;28;20258;-58
2022/06/13 05:49:26;;;;;;;;;;;;;;;;;;5090237;28;20415;-58
2022/06/13 05:52:00;;;;;;;;;;;;;;;;;;5096203;28;19909;-58
2022/06/13 05:54:36;;;;;;;;;;;;;;;;;;;;;
2022/06/13 05:57:08;;;;;;;;;;;;;;;;;;5079996;28;19908;-58
2022/06/13 05:59:47;;;;;;;;;;;;;;;;;;5096011;28;19950;-58
2022/06/13 06:02:16;;;;;;;;;;;;;;;;;;5101726;28;19915;-58
2022/06/13 06:04:48;;;;;;;;;;;;;;;;;;5105084;28;19908;-58
2022/06/13 06:10:07;;;;;;;;;;;;;;;;;;5101415;28;19931;-58
2022/06/13 06:15:37;;;;;;;;;;;;;;;;;;5005694;28;20414;-57
2022/06/13 06:20:54;;;;;;;;;;;;;;;;;;5005513;28;19917;-58
2022/06/13 06:23:21;;;;;;;;;;;;;;;;;;5005201;28;19916;-58
2022/06/13 06:25:49;;;;;;;;;;;;;;;;;;5075778;28;19908;-58
2022/06/13 06:31:06;;;;;;;;;;;;;;;;;;5107087;28;19915;-58
2022/06/13 06:33:41;;;;;;;;;;;;;;;;;;5072051;28;20347;-58
2022/06/13 06:36:07;;;;;;;;;;;;;;;;;;5107532;28;19908;-58
2022/06/13 06:38:40;;;;;;;;;;;;;;;;;;5107484;28;19912;-58
2022/06/13 06:41:08;;;;;;;;;;;;;;;;;;5107437;28;19944;-59
2022/06/13 06:43:37;;;;;;;;;;;;;;;;;;5097522;28;19955;-58
2022/06/13 06:46:07;;;;;;;;;;;;;;;;;;5102536;28;19942;-58
2022/06/13 06:48:44;;;;;;;;;;;;;;;;;;;;;
2022/06/13 06:51:24;;;;;;;;;;;;;;;;;;5107805;28;20010;-58
2022/06/13 07:02:18;;;;;;;;;;;;;;;;;;;;;
2022/06/13 07:07:51;;;;;;;;;;;;;;;;;;4965789;29;19911;-59
2022/06/13 07:10:46;;;;;;;;;;;;;;;;;;4964768;29;19910;-58
2022/06/13 07:13:09;;;;;;;;;;;;;;;;;;5024167;28;19908;-58
2022/06/13 07:15:48;;;;;;;;;;;;;;;;;;5064986;28;19909;-58
2022/06/13 07:18:14;;;;;;;;;;;;;;;;;;5065100;28;19958;-59
2022/06/13 07:20:40;;;;;;;;;;;;;;;;;;5067680;28;19948;-59
2022/06/13 07:23:15;;;;;;;;;;;;;;;;;;5068392;28;19909;-58
2022/06/13 07:25:57;;;;;;;;;;;;;;;;;;5103109;28;19909;-58
2022/06/13 07:28:23;;;;;;;;;;;;;;;;;;5110773;28;19916;-59
2022/06/13 07:30:52;;;;;;;;;;;;;;;;;;5110228;28;19909;-58
2022/06/13 07:33:27;;;;;;;;;;;;;;;;;;5110570;28;19977;-58
2022/06/13 07:35:59;;;;;;;;;;;;;;;;;;5110251;28;19968;-59
2022/06/13 07:38:29;;;;;;;;;;;;;;;;;;5109623;28;19911;-59
2022/06/13 07:43:44;;;;;;;;;;;;;;;;;;5110598;28;19961;-58
2022/06/13 07:46:16;;;;;;;;;;;;;;;;;;5090458;28;19908;-58
2022/06/13 07:48:49;;;;;;;;;;;;;;;;;;5109361;28;19926;-59
2022/06/13 07:51:23;;;;;;;;;;;;;;;;;;5108953;28;19908;-59
2022/06/13 07:53:58;;;;;;;;;;;;;;;;;;5110456;28;19948;-59
2022/06/13 07:56:38;;;;;;;;;;;;;;;;;;5086701;28;20388;-59
2022/06/13 07:59:11;;;;;;;;;;;;;;;;;;5109954;28;19913;-59
2022/06/13 08:01:43;;;;;;;;;;;;;;;;;;5104029;28;20420;-59
2022/06/13 08:04:12;;;;;;;;;;;;;;;;;;5079964;28;19908;-59
2022/06/13 08:06:42;;;;;;;;;;;;;;;;;;5075138;28;19912;-59
2022/06/13 08:09:24;;;;;;;;;;;;;;;;;;5079569;28;19916;-59
2022/06/13 08:11:56;;;;;;;;;;;;;;;;;;5079608;28;19909;-59
2022/06/13 08:14:30;;;;;;;;;;;;;;;;;;5062832;28;19908;-59
2022/06/13 08:17:02;;;;;;;;;;;;;;;;;;5098022;28;20330;-59
2022/06/13 08:22:29;;;;;;;;;;;;;;;;;;5092709;28;20269;-59
2022/06/13 08:25:10;;;;;;;;;;;;;;;;;;5062071;28;19931;-59
2022/06/13 08:28:01;;;;;;;;;;;;;;;;;;;;;
2022/06/13 08:30:46;;;;;;;;;;;;;;;;;;5097774;28;20002;-59
2022/06/13 08:33:21;;;;;;;;;;;;;;;;;;5097493;28;19909;-59
2022/06/13 08:35:47;;;;;;;;;;;;;;;;;;5097558;28;19998;-59
2022/06/13 08:38:19;;;;;;;;;;;;;;;;;;5097113;28;19912;-59
2022/06/13 08:40:54;;;;;;;;;;;;;;;;;;5078380;28;19916;-59
2022/06/13 08:43:45;;;;;;;;;;;;;;;;;;;;;
2022/06/13 08:49:23;;;;;;;;;;;;;;;;;;;;;
2022/06/13 08:51:54;;;;;;;;;;;;;;;;;;4996096;28;19910;-59
2022/06/13 08:54:24;;;;;;;;;;;;;;;;;;4996061;28;20379;-59
2022/06/13 08:59:48;;;;;;;;;;;;;;;;;;5062187;28;19908;-59
2022/06/13 09:02:16;;;;;;;;;;;;;;;;;;5080785;28;19912;-59
2022/06/13 09:10:16;;;;;;;;;;;;;;;;;;5061214;28;19916;-59
2022/06/13 09:12:45;;;;;;;;;;;;;;;;;;5058767;28;20372;-59
2022/06/13 09:15:11;;;;;;;;;;;;;;;;;;5075775;28;19954;-59
2022/06/13 09:17:37;;;;;;;;;;;;;;;;;;5057848;28;19988;-59
2022/06/13 09:20:10;;;;;;;;;;;;;;;;;;5056539;28;19955;-59
2022/06/13 09:22:51;;;;;;;;;;;;;;;;;;5057532;28;19955;-60
2022/06/13 09:25:20;;;;;;;;;;;;;;;;;;5057051;28;19943;-59
2022/06/13 09:27:59;;;;;;;;;;;;;;;;;;5075549;28;19909;-59
2022/06/13 09:30:32;;;;;;;;;;;;;;;;;;5056977;28;19931;-59
2022/06/13 09:33:42;;;;;;;;;;;;;;;;;;5075601;28;19992;-59
2022/06/13 09:38:47;;;;;;;;;;;;;;;;;;5039724;28;19915;-59
2022/06/13 09:41:14;;;;;;;;;;;;;;;;;;5075441;28;19919;-59
2022/06/13 09:43:40;;;;;;;;;;;;;;;;;;5058002;28;20269;-59
2022/06/13 09:46:15;;;;;;;;;;;;;;;;;;5074821;28;19931;-59
2022/06/13 09:51:45;;;;;;;;;;;;;;;;;;5055373;28;20027;-59
2022/06/13 09:54:11;;;;;;;;;;;;;;;;;;5075389;28;20273;-59
2022/06/13 09:56:37;;;;;;;;;;;;;;;;;;5075005;28;19913;-59
2022/06/13 09:59:14;;;;;;;;;;;;;;;;;;5075301;28;19971;-59
2022/06/13 10:01:43;;;;;;;;;;;;;;;;;;5075815;28;19908;-59
2022/06/13 10:04:15;;;;;;;;;;;;;;;;;;5074794;28;19915;-59
2022/06/13 10:06:51;;;;;;;;;;;;;;;;;;5075363;28;20385;-59
2022/06/13 10:12:25;;;;;;;;;;;;;;;;;;;;;
2022/06/13 10:14:52;;;;;;;;;;;;;;;;;;5075103;28;20269;-59
2022/06/13 10:17:21;;;;;;;;;;;;;;;;;;5075235;28;19908;-59
2022/06/13 10:19:51;;;;;;;;;;;;;;;;;;5074758;28;19956;-59
2022/06/13 10:25:15;;;;;;;;;;;;;;;;;;5062630;28;19909;-59
2022/06/13 10:27:47;;;;;;;;;;;;;;;;;;5075473;28;19908;-59
2022/06/13 10:33:11;;;;;;;;;;;;;;;;;;5076365;28;19916;-59
2022/06/13 10:35:43;;;;;;;;;;;;;;;;;;5073376;28;19952;-59
2022/06/13 10:41:04;;;;;;;;;;;;;;;;;;5050644;28;19908;-59
2022/06/13 10:43:42;;;;;;;;;;;;;;;;;;;;;
2022/06/13 10:49:09;;;;;;;;;;;;;;;;;;5014572;28;19925;-59
2022/06/13 10:54:48;;;;;;;;;;;;;;;;;;5012811;28;19918;-59
2022/06/13 10:57:17;;;;;;;;;;;;;;;;;;5030064;28;20408;-59
2022/06/13 11:00:00;;;;;;;;;;;;;;;;;;5032613;28;20408;-59
2022/06/13 11:05:21;;;;;;;;;;;;;;;;;;5028129;28;19915;-59
2022/06/13 11:07:49;;;;;;;;;;;;;;;;;;5032695;28;20000;-59
2022/06/13 11:10:31;;;;;;;;;;;;;;;;;;5072367;28;19948;-59
2022/06/13 11:24:19;;;;;;;;;;;;;;;;;;;;;
2022/06/13 11:32:24;;;;;;;;;;;;;;;;;;5057753;28;19912;-59
2022/06/13 11:34:52;;;;;;;;;;;;;;;;;;5073689;28;19916;-59
2022/06/13 11:37:25;;;;;;;;;;;;;;;;;;5073927;28;19908;-59
2022/06/13 11:40:00;;;;;;;;;;;;;;;;;;5074700;28;20397;-59
2022/06/13 11:45:21;;;;;;;;;;;;;;;;;;5073761;28;19916;-59
2022/06/13 11:47:56;;;;;;;;;;;;;;;;;;5058811;28;20294;-59
2022/06/13 11:50:22;;;;;;;;;;;;;;;;;;5076487;28;20069;-59
2022/06/13 11:55:43;;;;;;;;;;;;;;;;;;;;;
2022/06/13 11:58:18;;;;;;;;;;;;;;;;;;5094035;28;19908;-59
2022/06/13 12:00:48;;;;;;;;;;;;;;;;;;5094602;28;19912;-59
2022/06/13 12:03:20;;;;;;;;;;;;;;;;;;5058939;28;19919;-59
2022/06/13 12:06:03;;;;;;;;;;;;;;;;;;5054847;28;19915;-59
2022/06/13 12:14:16;;;;;;;;;;;;;;;;;;;;;
2022/06/13 12:22:35;;;;;;;;;;;;;;;;;;;;;
2022/06/13 12:25:03;;;;;;;;;;;;;;;;;;5055117;28;19909;-59
2022/06/13 12:27:49;;;;;;;;;;;;;;;;;;5054854;28;19912;-59
2022/06/13 12:30:15;;;;;;;;;;;;;;;;;;5054846;28;19913;-59
2022/06/13 12:32:44;;;;;;;;;;;;;;;;;;5055100;28;19919;-59
2022/06/13 12:35:10;;;;;;;;;;;;;;;;;;5054669;28;19964;-59
2022/06/13 12:37:48;;;;;;;;;;;;;;;;;;5072192;28;20350;-59
2022/06/13 12:42:59;;;;;;;;;;;;;;;;;;5097584;28;19916;-59
2022/06/13 12:51:18;;;;;;;;;;;;;;;;;;5038428;28;19920;-59
2022/06/13 12:53:53;;;;;;;;;;;;;;;;;;5074029;28;19947;-59
2022/06/13 12:56:22;;;;;;;;;;;;;;;;;;5077788;28;20325;-59
2022/06/13 12:58:53;;;;;;;;;;;;;;;;;;5043005;28;19909;-59
2022/06/13 13:01:25;;;;;;;;;;;;;;;;;;5077149;28;20335;-59
2022/06/13 13:03:55;;;;;;;;;;;;;;;;;;5076952;28;19916;-59
2022/06/13 13:06:34;;;;;;;;;;;;;;;;;;;;;
2022/06/13 13:09:08;;;;;;;;;;;;;;;;;;5077375;28;19919;-59
2022/06/13 13:11:51;;;;;;;;;;;;;;;;;;;;;
2022/06/13 13:14:32;;;;;;;;;;;;;;;;;;5076085;28;19976;-59
2022/06/13 13:17:21;;;;;;;;;;;;;;;;;;5072285;28;19909;-59
2022/06/13 13:20:08;;;;;;;;;;;;;;;;;;5057903;28;19909;-59
2022/06/13 13:22:35;;;;;;;;;;;;;;;;;;5075960;28;19913;-59
2022/06/13 13:25:01;;;;;;;;;;;;;;;;;;5076686;28;19912;-59
2022/06/13 13:30:25;;;;;;;;;;;;;;;;;;5043041;28;19920;-59
2022/06/13 13:32:55;;;;;;;;;;;;;;;;;;5064933;28;20342;-59
2022/06/13 13:38:10;;;;;;;;;;;;;;;;;;5046352;28;19908;-59
2022/06/13 13:40:36;;;;;;;;;;;;;;;;;;5052617;28;19908;-59
2022/06/13 13:43:05;;;;;;;;;;;;;;;;;;5075857;28;19946;-59
2022/06/13 13:45:40;;;;;;;;;;;;;;;;;;5057067;28;20369;-59
2022/06/13 13:48:12;;;;;;;;;;;;;;;;;;5075886;28;20350;-59
2022/06/13 13:50:50;;;;;;;;;;;;;;;;;;5087747;28;19920;-59
2022/06/13 13:53:31;;;;;;;;;;;;;;;;;;5095549;28;19909;-59
2022/06/13 13:55:57;;;;;;;;;;;;;;;;;;5095394;28;19958;-59
2022/06/13 14:01:26;;;;;;;;;;;;;;;;;;5081756;28;19948;-59
2022/06/13 14:06:59;;;;;;;;;;;;;;;;;;5041894;28;19908;-59
2022/06/13 14:09:35;;;;;;;;;;;;;;;;;;5094658;28;20023;-59
2022/06/13 14:12:04;;;;;;;;;;;;;;;;;;5095019;28;20003;-59
2022/06/13 14:14:42;;;;;;;;;;;;;;;;;;5052763;28;20492;-59
2022/06/13 14:20:13;;;;;;;;;;;;;;;;;;4973907;28;20277;-59
2022/06/13 14:22:42;;;;;;;;;;;;;;;;;;4958571;28;20461;-59
2022/06/13 14:27:58;;;;;;;;;;;;;;;;;;4927774;29;19910;-59
2022/06/13 14:36:12;;;;;;;;;;;;;;;;;;4985772;28;19917;-59
2022/06/13 14:38:41;;;;;;;;;;;;;;;;;;4976648;28;19910;-59
2022/06/13 14:41:15;;;;;;;;;;;;;;;;;;4993399;28;20319;-59
2022/06/13 14:46:30;;;;;;;;;;;;;;;;;;5028317;28;19917;-59
2022/06/13 14:48:56;;;;;;;;;;;;;;;;;;5015777;28;19917;-58
2022/06/13 14:51:28;;;;;;;;;;;;;;;;;;5031991;28;20010;-58
2022/06/13 14:53:58;;;;;;;;;;;;;;;;;;5015849;28;19920;-58
2022/06/13 14:59:13;;;;;;;;;;;;;;;;;;5074997;28;20411;-58
2022/06/13 15:01:48;;;;;;;;;;;;;;;;;;5070885;28;19915;-58
2022/06/13 15:04:20;;;;;;;;;;;;;;;;;;5072708;28;19916;-58
2022/06/13 15:07:09;;;;;;;;;;;;;;;;;;5075028;28;20281;-58
2022/06/13 15:09:42;;;;;;;;;;;;;;;;;;5073233;28;20384;-59
2022/06/13 15:12:11;;;;;;;;;;;;;;;;;;5075448;28;20338;-58
2022/06/13 15:14:41;;;;;;;;;;;;;;;;;;5074603;28;19909;-58
2022/06/13 15:17:07;;;;;;;;;;;;;;;;;;5074912;28;19908;-59
2022/06/13 15:19:52;;;;;;;;;;;;;;;;;;;;;
2022/06/13 15:30:42;;;;;;;;;;;;;;;;;;5074550;28;20401;-58
2022/06/13 15:33:14;;;;;;;;;;;;;;;;;;5073238;28;19946;-58
2022/06/13 15:36:44;;;;;;;;;;;;;;;;;;5074952;28;19916;-58
2022/06/13 15:38:53;;;;;;;;;;;;;;;;;;5067836;28;19999;-58
2022/06/13 15:41:22;;;;;;;;;;;;;;;;;;5078834;28;19909;-58
2022/06/13 15:43:51;;;;;;;;;;;;;;;;;;5080843;28;20322;-58
2022/06/13 15:46:26;;;;;;;;;;;;;;;;;;5077629;28;19908;-58
2022/06/13 15:48:58;;;;;;;;;;;;;;;;;;5074906;28;20069;-58
2022/06/13 15:51:23;;;;;;;;;;;;;;;;;;5074950;28;19973;-57
2022/06/13 15:53:49;;;;;;;;;;;;;;;;;;5065001;28;20011;-58
2022/06/13 15:56:15;;;;;;;;;;;;;;;;;;5077598;28;19909;-59
2022/06/13 15:58:57;;;;;;;;;;;;;;;;;;5075934;28;19997;-58
2022/06/13 16:01:41;;;;;;;;;;;;;;;;;;5077239;28;19930;-58
2022/06/13 16:04:11;;;;;;;;;;;;;;;;;;5078582;28;20249;-58
2022/06/13 16:06:37;;;;;;;;;;;;;;;;;;5075751;28;19912;-58
2022/06/13 16:09:14;;;;;;;;;;;;;;;;;;;;;
2022/06/13 16:11:54;;;;;;;;;;;;;;;;;;5076946;28;20354;-58
2022/06/13 16:14:29;;;;;;;;;;;;;;;;;;5071434;28;19908;-58
2022/06/13 16:17:05;;;;;;;;;;;;;;;;;;5074470;28;19909;-58
2022/06/13 16:19:41;;;;;;;;;;;;;;;;;;5077647;28;20358;-58
2022/06/13 16:22:52;;;;;;;;;;;;;;;;;;5078124;28;20404;-58
2022/06/13 16:25:02;;;;;;;;;;;;;;;;;;5072934;28;19913;-59
2022/06/13 16:30:41;;;;;;;;;;;;;;;;;;5054482;28;19925;-57
2022/06/13 16:33:22;;;;;;;;;;;;;;;;;;5086812;28;19909;-57
2022/06/13 16:35:57;;;;;;;;;;;;;;;;;;5077299;28;19962;-58
2022/06/13 16:38:29;;;;;;;;;;;;;;;;;;5057685;28;20358;-58
2022/06/13 16:40:57;;;;;;;;;;;;;;;;;;5074426;28;20419;-58
2022/06/13 16:43:29;;;;;;;;;;;;;;;;;;5077388;28;19955;-58
2022/06/13 16:48:40;;;;;;;;;;;;;;;;;;5076737;28;20419;-58
2022/06/13 16:56:44;;;;;;;;;;;;;;;;;;5068609;28;19908;-58
2022/06/13 16:59:13;;;;;;;;;;;;;;;;;;5064149;28;20412;-57
2022/06/13 17:04:36;;;;;;;;;;;;;;;;;;;;;
2022/06/13 17:07:03;;;;;;;;;;;;;;;;;;5077021;28;20441;-58
2022/06/13 17:09:37;;;;;;;;;;;;;;;;;;5075055;28;19916;-58
2022/06/13 17:17:47;;;;;;;;;;;;;;;;;;4994479;28;20028;-58
2022/06/13 17:20:14;;;;;;;;;;;;;;;;;;5069421;28;19947;-58
2022/06/13 17:22:40;;;;;;;;;;;;;;;;;;5077190;28;19932;-58
2022/06/13 17:33:24;;;;;;;;;;;;;;;;;;5076608;28;19962;-58
2022/06/13 17:35:50;;;;;;;;;;;;;;;;;;5075777;28;19908;-58
2022/06/13 17:38:16;;;;;;;;;;;;;;;;;;5076293;28;19970;-59
2022/06/13 17:40:47;;;;;;;;;;;;;;;;;;5074724;28;20402;-58
2022/06/13 17:43:13;;;;;;;;;;;;;;;;;;5073379;28;19940;-58
2022/06/13 17:45:43;;;;;;;;;;;;;;;;;;5076350;28;19908;-59
2022/06/13 17:48:18;;;;;;;;;;;;;;;;;;5074528;28;19916;-58
2022/06/13 17:51:02;;;;;;;;;;;;;;;;;;5082491;28;20365;-59
2022/06/13 17:53:38;;;;;;;;;;;;;;;;;;5075284;28;20468;-58
2022/06/13 17:56:17;;;;;;;;;;;;;;;;;;;;;
2022/06/13 17:59:01;;;;;;;;;;;;;;;;;;5096002;28;19912;-58
2022/06/13 18:01:38;;;;;;;;;;;;;;;;;;5095703;28;19908;-58
2022/06/13 18:04:04;;;;;;;;;;;;;;;;;;5095641;28;20405;-58
2022/06/13 18:06:33;;;;;;;;;;;;;;;;;;5095549;28;19908;-58
2022/06/13 18:09:09;;;;;;;;;;;;;;;;;;5096013;28;19939;-58
2022/06/13 18:14:24;;;;;;;;;;;;;;;;;;5077794;28;19908;-59
2022/06/13 18:16:50;;;;;;;;;;;;;;;;;;5076915;28;20388;-59
2022/06/13 18:19:16;;;;;;;;;;;;;;;;;;5075651;28;20426;-58
2022/06/13 18:21:57;;;;;;;;;;;;;;;;;;5095845;28;19908;-58
2022/06/13 18:24:40;;;;;;;;;;;;;;;;;;5095256;28;20434;-58
2022/06/13 18:27:16;;;;;;;;;;;;;;;;;;;;;
2022/06/13 18:29:55;;;;;;;;;;;;;;;;;;5095331;28;20261;-58
2022/06/13 18:32:29;;;;;;;;;;;;;;;;;;5094605;28;20115;-58
2022/06/13 18:35:13;;;;;;;;;;;;;;;;;;5094832;28;20003;-58
2022/06/13 18:37:49;;;;;;;;;;;;;;;;;;5077248;28;19931;-59
2022/06/13 18:40:28;;;;;;;;;;;;;;;;;;;;;
2022/06/13 18:42:57;;;;;;;;;;;;;;;;;;5094729;28;19908;-58
2022/06/13 18:45:25;;;;;;;;;;;;;;;;;;5095600;28;20002;-58
2022/06/13 18:47:52;;;;;;;;;;;;;;;;;;5094535;28;19908;-59
2022/06/13 18:50:18;;;;;;;;;;;;;;;;;;5088527;28;19917;-58
2022/06/13 18:52:44;;;;;;;;;;;;;;;;;;5070139;28;20370;-58
2022/06/13 18:55:13;;;;;;;;;;;;;;;;;;5074766;28;19916;-59
2022/06/13 18:57:39;;;;;;;;;;;;;;;;;;5073914;28;19915;-59
2022/06/13 19:00:08;;;;;;;;;;;;;;;;;;5073439;28;20289;-59
2022/06/13 19:02:36;;;;;;;;;;;;;;;;;;5074690;28;19933;-58
2022/06/13 19:07:54;;;;;;;;;;;;;;;;;;5070885;28;19908;-59
2022/06/13 19:10:35;;;;;;;;;;;;;;;;;;5068669;28;19916;-59
2022/06/13 19:13:10;;;;;;;;;;;;;;;;;;5076552;28;19909;-59
2022/06/13 19:15:42;;;;;;;;;;;;;;;;;;5078052;28;20396;-59
2022/06/13 19:18:17;;;;;;;;;;;;;;;;;;5078985;28;19955;-59
2022/06/13 19:20:43;;;;;;;;;;;;;;;;;;5072637;28;20361;-59
2022/06/13 19:25:57;;;;;;;;;;;;;;;;;;5078399;28;19955;-58
2022/06/13 19:28:32;;;;;;;;;;;;;;;;;;5079342;28;19913;-59
2022/06/13 19:31:10;;;;;;;;;;;;;;;;;;5056280;28;20404;-58
2022/06/13 19:36:43;;;;;;;;;;;;;;;;;;5056389;28;20382;-58
2022/06/13 19:39:15;;;;;;;;;;;;;;;;;;5040062;28;19909;-59
2022/06/13 19:41:47;;;;;;;;;;;;;;;;;;5056665;28;20440;-60
2022/06/13 19:44:20;;;;;;;;;;;;;;;;;;5056235;28;19909;-59
2022/06/13 19:49:57;;;;;;;;;;;;;;;;;;5056803;28;20384;-58
2022/06/13 19:58:10;;;;;;;;;;;;;;;;;;5071324;28;19912;-58
2022/06/13 20:03:39;;;;;;;;;;;;;;;;;;5077293;28;19974;-58
2022/06/13 20:09:08;;;;;;;;;;;;;;;;;;;;;
2022/06/13 20:11:40;;;;;;;;;;;;;;;;;;5074607;28;19908;-58
2022/06/13 20:14:06;;;;;;;;;;;;;;;;;;5075873;28;19952;-58
2022/06/13 20:16:34;;;;;;;;;;;;;;;;;;5076802;28;19916;-58
2022/06/13 20:19:06;;;;;;;;;;;;;;;;;;5077864;28;20320;-58
2022/06/13 20:21:39;;;;;;;;;;;;;;;;;;5076396;28;19915;-56
2022/06/13 20:24:20;;;;;;;;;;;;;;;;;;5075408;28;20391;-57
2022/06/13 20:26:49;;;;;;;;;;;;;;;;;;5077656;28;19908;-58
2022/06/13 20:29:25;;;;;;;;;;;;;;;;;;5077257;28;19916;-58
2022/06/13 20:31:53;;;;;;;;;;;;;;;;;;5077489;28;19908;-59
2022/06/13 20:34:33;;;;;;;;;;;;;;;;;;5076280;28;20388;-58
2022/06/13 20:37:02;;;;;;;;;;;;;;;;;;5077337;28;19923;-59
2022/06/13 20:39:43;;;;;;;;;;;;;;;;;;5075270;28;20350;-58
2022/06/13 20:42:15;;;;;;;;;;;;;;;;;;5076571;28;19908;-58
2022/06/13 20:44:44;;;;;;;;;;;;;;;;;;5077270;28;19912;-58
2022/06/13 20:50:04;;;;;;;;;;;;;;;;;;5076529;28;19924;-58
2022/06/13 20:52:39;;;;;;;;;;;;;;;;;;5068633;28;19920;-58
2022/06/13 20:55:05;;;;;;;;;;;;;;;;;;5072304;28;19909;-58
2022/06/13 20:57:34;;;;;;;;;;;;;;;;;;5076590;28;20230;-58
2022/06/13 21:00:12;;;;;;;;;;;;;;;;;;5076959;28;19915;-58
2022/06/13 21:02:41;;;;;;;;;;;;;;;;;;5084902;28;19909;-58
2022/06/13 21:05:14;;;;;;;;;;;;;;;;;;5088381;28;19908;-58
2022/06/13 21:07:50;;;;;;;;;;;;;;;;;;5088345;28;19909;-58
2022/06/13 21:10:16;;;;;;;;;;;;;;;;;;5088690;28;19917;-58
2022/06/13 21:12:42;;;;;;;;;;;;;;;;;;5086970;28;19908;-58
2022/06/13 21:18:16;;;;;;;;;;;;;;;;;;;;;
2022/06/13 21:20:45;;;;;;;;;;;;;;;;;;5088625;28;19947;-58
2022/06/13 21:23:14;;;;;;;;;;;;;;;;;;5087933;28;19908;-58
2022/06/13 21:25:57;;;;;;;;;;;;;;;;;;5085538;28;19916;-58
2022/06/13 21:28:45;;;;;;;;;;;;;;;;;;;;;
2022/06/13 21:31:18;;;;;;;;;;;;;;;;;;5088029;28;19940;-58
2022/06/13 21:33:52;;;;;;;;;;;;;;;;;;5088097;28;19930;-57
2022/06/13 21:36:44;;;;;;;;;;;;;;;;;;5088214;28;19908;-58
2022/06/13 21:39:16;;;;;;;;;;;;;;;;;;5087911;28;19947;-58
2022/06/13 21:41:49;;;;;;;;;;;;;;;;;;5088369;28;19927;-58
2022/06/13 21:44:27;;;;;;;;;;;;;;;;;;5088675;28;20247;-58
2022/06/13 21:46:59;;;;;;;;;;;;;;;;;;5088455;28;19912;-56
2022/06/13 21:52:09;;;;;;;;;;;;;;;;;;5086454;28;19969;-58
2022/06/13 21:54:53;;;;;;;;;;;;;;;;;;5108282;28;19912;-58
2022/06/13 21:57:26;;;;;;;;;;;;;;;;;;5105486;28;19908;-58
2022/06/13 21:59:55;;;;;;;;;;;;;;;;;;5107945;28;19944;-57
2022/06/13 22:02:28;;;;;;;;;;;;;;;;;;5089408;28;19915;-58
2022/06/13 22:05:00;;;;;;;;;;;;;;;;;;5089185;28;20263;-58
2022/06/13 22:07:26;;;;;;;;;;;;;;;;;;5107777;28;19908;-58
2022/06/13 22:10:04;;;;;;;;;;;;;;;;;;5107383;28;19927;-57
2022/06/13 22:12:33;;;;;;;;;;;;;;;;;;5108080;28;19915;-58
2022/06/13 22:15:15;;;;;;;;;;;;;;;;;;5108538;28;19909;-58
2022/06/13 22:17:48;;;;;;;;;;;;;;;;;;5107699;28;19932;-58
2022/06/13 22:20:29;;;;;;;;;;;;;;;;;;5107871;28;19911;-57
2022/06/13 22:22:59;;;;;;;;;;;;;;;;;;5108102;28;20002;-57
2022/06/13 22:25:28;;;;;;;;;;;;;;;;;;5108028;28;19907;-57
2022/06/13 22:27:54;;;;;;;;;;;;;;;;;;5099190;28;19915;-57
2022/06/13 22:30:21;;;;;;;;;;;;;;;;;;5108402;28;19923;-58
2022/06/13 22:33:08;;;;;;;;;;;;;;;;;;5108542;28;19945;-58